sensor_id;sensor_type;location;lat;lon;timestamp;P1;durP1;ratioP1;P2;durP2;ratioP2
6997;SDS011;3539;47.982;12.238;2023-07-31T00:00:58;5.07;;;2.50;;
6997;SDS011;3539;47.982;12.238;2023-07-31T00:03:24;4.00;;;2.40;;
6997;SDS011;3539;47.982;12.238;2023-07-31T00:05:51;3.50;;;2.17;;
6997;SDS011;3539;47.982;12.238;2023-07-31T00:08:18;4.30;;;2.30;;
6997;SDS011;3539;47.982;12.238;2023-07-31T00:10:45;3.23;;;2.20;;
6997;SDS011;3539;47.982;12.238;2023-07-31T00:13:11;2.43;;;2.00;;
6997;SDS011;3539;47.982;12.238;2023-07-31T00:15:40;2.70;;;2.30;;
6997;SDS011;3539;47.982;12.238;2023-07-31T00:18:06;4.13;;;2.07;;
6997;SDS011;3539;47.982;12.238;2023-07-31T00:20:33;2.77;;;2.10;;
6997;SDS011;3539;47.982;12.238;2023-07-31T00:23:00;4.43;;;2.33;;
6997;SDS011;3539;47.982;12.238;2023-07-31T00:25:26;2.80;;;2.30;;
6997;SDS011;3539;47.982;12.238;2023-07-31T00:27:53;4.90;;;2.20;;
6997;SDS011;3539;47.982;12.238;2023-07-31T00:30:20;2.47;;;2.20;;
6997;SDS011;3539;47.982;12.238;2023-07-31T00:32:48;3.27;;;1.83;;
6997;SDS011;3539;47.982;12.238;2023-07-31T00:35:15;3.60;;;2.10;;
6997;SDS011;3539;47.982;12.238;2023-07-31T00:37:42;2.63;;;2.20;;
6997;SDS011;3539;47.982;12.238;2023-07-31T00:40:09;2.67;;;2.40;;
6997;SDS011;3539;47.982;12.238;2023-07-31T00:42:36;2.77;;;2.20;;
6997;SDS011;3539;47.982;12.238;2023-07-31T00:45:03;3.07;;;2.13;;
6997;SDS011;3539;47.982;12.238;2023-07-31T00:47:30;5.07;;;1.90;;
6997;SDS011;3539;47.982;12.238;2023-07-31T00:49:58;3.03;;;2.23;;
6997;SDS011;3539;47.982;12.238;2023-07-31T00:52:25;3.53;;;2.30;;
6997;SDS011;3539;47.982;12.238;2023-07-31T00:54:52;5.00;;;2.13;;
6997;SDS011;3539;47.982;12.238;2023-07-31T00:57:19;5.47;;;2.30;;
6997;SDS011;3539;47.982;12.238;2023-07-31T00:59:45;3.80;;;2.60;;
6997;SDS011;3539;47.982;12.238;2023-07-31T01:02:12;3.20;;;2.30;;
6997;SDS011;3539;47.982;12.238;2023-07-31T01:04:39;3.10;;;2.23;;
6997;SDS011;3539;47.982;12.238;2023-07-31T01:07:11;3.30;;;2.20;;
6997;SDS011;3539;47.982;12.238;2023-07-31T01:09:43;3.57;;;2.23;;
6997;SDS011;3539;47.982;12.238;2023-07-31T01:12:13;2.70;;;2.37;;
6997;SDS011;3539;47.982;12.238;2023-07-31T01:14:41;3.43;;;2.30;;
6997;SDS011;3539;47.982;12.238;2023-07-31T01:17:17;3.37;;;1.90;;
6997;SDS011;3539;47.982;12.238;2023-07-31T01:19:44;5.60;;;2.43;;
6997;SDS011;3539;47.982;12.238;2023-07-31T01:22:21;2.90;;;2.23;;
6997;SDS011;3539;47.982;12.238;2023-07-31T01:24:59;5.50;;;2.43;;
6997;SDS011;3539;47.982;12.238;2023-07-31T01:27:34;3.30;;;2.30;;
6997;SDS011;3539;47.982;12.238;2023-07-31T01:30:03;2.60;;;2.10;;
6997;SDS011;3539;47.982;12.238;2023-07-31T01:32:36;3.23;;;2.40;;
6997;SDS011;3539;47.982;12.238;2023-07-31T01:35:03;2.70;;;2.03;;
6997;SDS011;3539;47.982;12.238;2023-07-31T01:37:30;3.13;;;2.10;;
6997;SDS011;3539;47.982;12.238;2023-07-31T01:39:57;2.27;;;2.00;;
6997;SDS011;3539;47.982;12.238;2023-07-31T01:42:24;4.00;;;2.30;;
6997;SDS011;3539;47.982;12.238;2023-07-31T01:44:52;3.77;;;2.50;;
6997;SDS011;3539;47.982;12.238;2023-07-31T01:47:19;5.73;;;2.60;;
6997;SDS011;3539;47.982;12.238;2023-07-31T01:49:45;2.40;;;2.17;;
6997;SDS011;3539;47.982;12.238;2023-07-31T01:52:12;4.40;;;2.60;;
6997;SDS011;3539;47.982;12.238;2023-07-31T01:54:39;3.10;;;2.27;;
6997;SDS011;3539;47.982;12.238;2023-07-31T01:57:06;3.33;;;2.63;;
6997;SDS011;3539;47.982;12.238;2023-07-31T01:59:33;2.60;;;2.38;;
6997;SDS011;3539;47.982;12.238;2023-07-31T02:02:01;5.00;;;2.30;;
6997;SDS011;3539;47.982;12.238;2023-07-31T02:04:28;5.03;;;2.57;;
6997;SDS011;3539;47.982;12.238;2023-07-31T02:06:54;4.67;;;2.30;;
6997;SDS011;3539;47.982;12.238;2023-07-31T02:09:21;3.67;;;2.67;;
6997;SDS011;3539;47.982;12.238;2023-07-31T02:11:48;4.40;;;2.83;;
6997;SDS011;3539;47.982;12.238;2023-07-31T02:14:14;4.93;;;2.57;;
6997;SDS011;3539;47.982;12.238;2023-07-31T02:16:41;2.97;;;2.30;;
6997;SDS011;3539;47.982;12.238;2023-07-31T02:19:10;3.30;;;2.67;;
6997;SDS011;3539;47.982;12.238;2023-07-31T02:21:37;4.10;;;2.57;;
6997;SDS011;3539;47.982;12.238;2023-07-31T02:24:04;3.43;;;2.47;;
6997;SDS011;3539;47.982;12.238;2023-07-31T02:26:30;3.60;;;2.60;;
6997;SDS011;3539;47.982;12.238;2023-07-31T02:28:57;3.17;;;2.23;;
6997;SDS011;3539;47.982;12.238;2023-07-31T02:31:24;3.20;;;2.30;;
6997;SDS011;3539;47.982;12.238;2023-07-31T02:33:51;4.40;;;2.47;;
6997;SDS011;3539;47.982;12.238;2023-07-31T02:36:19;4.23;;;2.33;;
6997;SDS011;3539;47.982;12.238;2023-07-31T02:38:45;3.67;;;2.30;;
6997;SDS011;3539;47.982;12.238;2023-07-31T02:41:12;3.93;;;2.63;;
6997;SDS011;3539;47.982;12.238;2023-07-31T02:43:39;2.50;;;2.30;;
6997;SDS011;3539;47.982;12.238;2023-07-31T02:46:06;2.93;;;2.40;;
6997;SDS011;3539;47.982;12.238;2023-07-31T02:48:32;4.27;;;2.50;;
6997;SDS011;3539;47.982;12.238;2023-07-31T02:50:59;2.60;;;2.10;;
6997;SDS011;3539;47.982;12.238;2023-07-31T02:53:27;3.77;;;2.40;;
6997;SDS011;3539;47.982;12.238;2023-07-31T02:55:54;4.40;;;2.30;;
6997;SDS011;3539;47.982;12.238;2023-07-31T02:58:21;2.90;;;2.17;;
6997;SDS011;3539;47.982;12.238;2023-07-31T03:00:47;3.27;;;2.20;;
6997;SDS011;3539;47.982;12.238;2023-07-31T03:03:14;3.67;;;2.27;;
6997;SDS011;3539;47.982;12.238;2023-07-31T03:05:41;3.03;;;2.37;;
6997;SDS011;3539;47.982;12.238;2023-07-31T03:08:08;4.10;;;2.30;;
6997;SDS011;3539;47.982;12.238;2023-07-31T03:10:36;4.10;;;2.30;;
6997;SDS011;3539;47.982;12.238;2023-07-31T03:13:02;4.53;;;2.57;;
6997;SDS011;3539;47.982;12.238;2023-07-31T03:15:29;2.67;;;2.43;;
6997;SDS011;3539;47.982;12.238;2023-07-31T03:17:56;3.03;;;2.07;;
6997;SDS011;3539;47.982;12.238;2023-07-31T03:20:23;2.73;;;2.20;;
6997;SDS011;3539;47.982;12.238;2023-07-31T03:22:50;4.40;;;2.23;;
6997;SDS011;3539;47.982;12.238;2023-07-31T03:25:16;4.37;;;2.23;;
6997;SDS011;3539;47.982;12.238;2023-07-31T03:27:44;4.40;;;2.40;;
6997;SDS011;3539;47.982;12.238;2023-07-31T03:30:11;3.20;;;2.40;;
6997;SDS011;3539;47.982;12.238;2023-07-31T03:32:38;3.63;;;2.40;;
6997;SDS011;3539;47.982;12.238;2023-07-31T03:35:05;3.67;;;2.77;;
6997;SDS011;3539;47.982;12.238;2023-07-31T03:37:32;3.13;;;2.40;;
6997;SDS011;3539;47.982;12.238;2023-07-31T03:39:59;4.63;;;2.60;;
6997;SDS011;3539;47.982;12.238;2023-07-31T03:42:25;4.20;;;2.40;;
6997;SDS011;3539;47.982;12.238;2023-07-31T03:44:53;2.50;;;2.30;;
6997;SDS011;3539;47.982;12.238;2023-07-31T03:47:20;3.50;;;2.50;;
6997;SDS011;3539;47.982;12.238;2023-07-31T03:49:47;2.50;;;2.20;;
6997;SDS011;3539;47.982;12.238;2023-07-31T03:52:14;2.27;;;2.07;;
6997;SDS011;3539;47.982;12.238;2023-07-31T03:54:41;5.40;;;2.40;;
6997;SDS011;3539;47.982;12.238;2023-07-31T03:57:09;3.63;;;2.60;;
6997;SDS011;3539;47.982;12.238;2023-07-31T03:59:36;3.43;;;2.90;;
6997;SDS011;3539;47.982;12.238;2023-07-31T04:02:07;4.03;;;3.00;;
6997;SDS011;3539;47.982;12.238;2023-07-31T04:04:33;3.83;;;3.30;;
6997;SDS011;3539;47.982;12.238;2023-07-31T04:07:00;4.23;;;3.37;;
6997;SDS011;3539;47.982;12.238;2023-07-31T04:09:27;5.10;;;3.33;;
6997;SDS011;3539;47.982;12.238;2023-07-31T04:11:53;4.00;;;2.80;;
6997;SDS011;3539;47.982;12.238;2023-07-31T04:14:20;3.00;;;2.70;;
6997;SDS011;3539;47.982;12.238;2023-07-31T04:16:47;5.20;;;2.80;;
6997;SDS011;3539;47.982;12.238;2023-07-31T04:19:15;2.93;;;2.70;;
6997;SDS011;3539;47.982;12.238;2023-07-31T04:21:42;2.90;;;2.30;;
6997;SDS011;3539;47.982;12.238;2023-07-31T04:24:09;3.10;;;2.63;;
6997;SDS011;3539;47.982;12.238;2023-07-31T04:26:36;3.03;;;2.80;;
6997;SDS011;3539;47.982;12.238;2023-07-31T04:29:02;6.70;;;2.93;;
6997;SDS011;3539;47.982;12.238;2023-07-31T04:31:29;2.80;;;2.50;;
6997;SDS011;3539;47.982;12.238;2023-07-31T04:33:56;4.57;;;2.40;;
6997;SDS011;3539;47.982;12.238;2023-07-31T04:36:24;4.00;;;2.37;;
6997;SDS011;3539;47.982;12.238;2023-07-31T04:38:51;2.80;;;2.17;;
6997;SDS011;3539;47.982;12.238;2023-07-31T04:41:17;3.37;;;2.43;;
6997;SDS011;3539;47.982;12.238;2023-07-31T04:43:44;3.20;;;2.53;;
6997;SDS011;3539;47.982;12.238;2023-07-31T04:46:11;3.37;;;2.83;;
6997;SDS011;3539;47.982;12.238;2023-07-31T04:48:38;2.53;;;2.33;;
6997;SDS011;3539;47.982;12.238;2023-07-31T04:51:05;2.60;;;2.30;;
6997;SDS011;3539;47.982;12.238;2023-07-31T04:53:33;2.65;;;2.45;;
6997;SDS011;3539;47.982;12.238;2023-07-31T04:56:00;3.70;;;2.53;;
6997;SDS011;3539;47.982;12.238;2023-07-31T04:58:26;3.03;;;2.40;;
6997;SDS011;3539;47.982;12.238;2023-07-31T05:00:53;4.43;;;2.63;;
6997;SDS011;3539;47.982;12.238;2023-07-31T05:03:20;2.20;;;2.00;;
6997;SDS011;3539;47.982;12.238;2023-07-31T05:05:47;4.43;;;2.40;;
6997;SDS011;3539;47.982;12.238;2023-07-31T05:08:14;2.87;;;2.57;;
6997;SDS011;3539;47.982;12.238;2023-07-31T05:10:44;3.93;;;2.77;;
6997;SDS011;3539;47.982;12.238;2023-07-31T05:13:10;2.67;;;2.47;;
6997;SDS011;3539;47.982;12.238;2023-07-31T05:15:37;3.17;;;2.70;;
6997;SDS011;3539;47.982;12.238;2023-07-31T05:18:04;2.47;;;2.27;;
6997;SDS011;3539;47.982;12.238;2023-07-31T05:20:31;7.43;;;2.83;;
6997;SDS011;3539;47.982;12.238;2023-07-31T05:22:58;4.10;;;3.03;;
6997;SDS011;3539;47.982;12.238;2023-07-31T05:25:24;4.23;;;3.03;;
6997;SDS011;3539;47.982;12.238;2023-07-31T05:27:53;2.90;;;2.57;;
6997;SDS011;3539;47.982;12.238;2023-07-31T05:30:19;4.23;;;3.00;;
6997;SDS011;3539;47.982;12.238;2023-07-31T05:32:46;4.87;;;3.17;;
6997;SDS011;3539;47.982;12.238;2023-07-31T05:35:13;3.30;;;2.90;;
6997;SDS011;3539;47.982;12.238;2023-07-31T05:37:40;4.53;;;3.10;;
6997;SDS011;3539;47.982;12.238;2023-07-31T05:40:07;4.50;;;3.60;;
6997;SDS011;3539;47.982;12.238;2023-07-31T05:42:34;4.00;;;3.20;;
6997;SDS011;3539;47.982;12.238;2023-07-31T05:45:05;5.23;;;3.30;;
6997;SDS011;3539;47.982;12.238;2023-07-31T05:47:32;3.50;;;3.20;;
6997;SDS011;3539;47.982;12.238;2023-07-31T05:49:59;3.20;;;2.90;;
6997;SDS011;3539;47.982;12.238;2023-07-31T05:52:26;4.10;;;3.17;;
6997;SDS011;3539;47.982;12.238;2023-07-31T05:54:54;10.33;;;3.10;;
6997;SDS011;3539;47.982;12.238;2023-07-31T05:57:20;2.90;;;2.60;;
6997;SDS011;3539;47.982;12.238;2023-07-31T05:59:47;4.47;;;2.83;;
6997;SDS011;3539;47.982;12.238;2023-07-31T06:02:19;2.60;;;2.40;;
6997;SDS011;3539;47.982;12.238;2023-07-31T06:04:47;3.07;;;2.43;;
6997;SDS011;3539;47.982;12.238;2023-07-31T06:07:13;5.40;;;2.73;;
6997;SDS011;3539;47.982;12.238;2023-07-31T06:09:41;3.30;;;2.43;;
6997;SDS011;3539;47.982;12.238;2023-07-31T06:12:08;3.40;;;2.30;;
6997;SDS011;3539;47.982;12.238;2023-07-31T06:14:35;4.30;;;2.50;;
6997;SDS011;3539;47.982;12.238;2023-07-31T06:17:01;4.10;;;2.40;;
6997;SDS011;3539;47.982;12.238;2023-07-31T06:19:30;4.10;;;2.57;;
6997;SDS011;3539;47.982;12.238;2023-07-31T06:21:57;3.17;;;2.30;;
6997;SDS011;3539;47.982;12.238;2023-07-31T06:24:23;3.50;;;2.33;;
6997;SDS011;3539;47.982;12.238;2023-07-31T06:26:50;2.93;;;2.47;;
6997;SDS011;3539;47.982;12.238;2023-07-31T06:29:17;3.03;;;2.50;;
6997;SDS011;3539;47.982;12.238;2023-07-31T06:31:44;2.70;;;2.33;;
6997;SDS011;3539;47.982;12.238;2023-07-31T06:34:11;3.07;;;2.17;;
6997;SDS011;3539;47.982;12.238;2023-07-31T06:36:39;2.47;;;2.13;;
6997;SDS011;3539;47.982;12.238;2023-07-31T06:39:07;4.00;;;2.30;;
6997;SDS011;3539;47.982;12.238;2023-07-31T06:41:34;3.20;;;2.10;;
6997;SDS011;3539;47.982;12.238;2023-07-31T06:44:02;3.03;;;2.20;;
6997;SDS011;3539;47.982;12.238;2023-07-31T06:46:29;4.33;;;2.40;;
6997;SDS011;3539;47.982;12.238;2023-07-31T06:48:55;3.00;;;2.27;;
6997;SDS011;3539;47.982;12.238;2023-07-31T06:51:22;3.67;;;2.17;;
6997;SDS011;3539;47.982;12.238;2023-07-31T06:53:50;2.80;;;2.30;;
6997;SDS011;3539;47.982;12.238;2023-07-31T06:56:17;2.80;;;2.10;;
6997;SDS011;3539;47.982;12.238;2023-07-31T06:58:44;4.13;;;2.10;;
6997;SDS011;3539;47.982;12.238;2023-07-31T07:01:10;2.10;;;1.90;;
6997;SDS011;3539;47.982;12.238;2023-07-31T07:03:37;4.83;;;2.17;;
6997;SDS011;3539;47.982;12.238;2023-07-31T07:06:04;2.53;;;2.00;;
6997;SDS011;3539;47.982;12.238;2023-07-31T07:08:31;2.97;;;2.10;;
6997;SDS011;3539;47.982;12.238;2023-07-31T07:10:59;2.70;;;1.80;;
6997;SDS011;3539;47.982;12.238;2023-07-31T07:13:26;2.13;;;1.90;;
6997;SDS011;3539;47.982;12.238;2023-07-31T07:15:52;2.07;;;1.83;;
6997;SDS011;3539;47.982;12.238;2023-07-31T07:18:19;3.30;;;2.00;;
6997;SDS011;3539;47.982;12.238;2023-07-31T07:20:46;3.23;;;2.10;;
6997;SDS011;3539;47.982;12.238;2023-07-31T07:23:13;2.47;;;1.70;;
6997;SDS011;3539;47.982;12.238;2023-07-31T07:25:40;3.03;;;2.00;;
6997;SDS011;3539;47.982;12.238;2023-07-31T07:28:09;2.03;;;1.80;;
6997;SDS011;3539;47.982;12.238;2023-07-31T07:30:36;2.40;;;1.60;;
6997;SDS011;3539;47.982;12.238;2023-07-31T07:33:03;2.60;;;1.60;;
6997;SDS011;3539;47.982;12.238;2023-07-31T07:35:30;2.00;;;1.67;;
6997;SDS011;3539;47.982;12.238;2023-07-31T07:37:59;3.63;;;2.00;;
6997;SDS011;3539;47.982;12.238;2023-07-31T07:40:26;2.37;;;1.60;;
6997;SDS011;3539;47.982;12.238;2023-07-31T07:42:52;3.07;;;1.80;;
6997;SDS011;3539;47.982;12.238;2023-07-31T07:45:21;4.27;;;1.80;;
6997;SDS011;3539;47.982;12.238;2023-07-31T07:47:47;4.27;;;2.17;;
6997;SDS011;3539;47.982;12.238;2023-07-31T07:50:14;3.90;;;1.90;;
6997;SDS011;3539;47.982;12.238;2023-07-31T07:52:41;4.47;;;2.03;;
6997;SDS011;3539;47.982;12.238;2023-07-31T07:55:08;2.17;;;1.87;;
6997;SDS011;3539;47.982;12.238;2023-07-31T07:57:35;3.53;;;1.90;;
6997;SDS011;3539;47.982;12.238;2023-07-31T08:00:02;3.13;;;1.97;;
6997;SDS011;3539;47.982;12.238;2023-07-31T08:02:31;2.17;;;1.80;;
6997;SDS011;3539;47.982;12.238;2023-07-31T08:04:58;3.70;;;1.90;;
6997;SDS011;3539;47.982;12.238;2023-07-31T08:07:25;1.93;;;1.50;;
6997;SDS011;3539;47.982;12.238;2023-07-31T08:09:52;2.90;;;1.90;;
6997;SDS011;3539;47.982;12.238;2023-07-31T08:12:19;1.97;;;1.60;;
6997;SDS011;3539;47.982;12.238;2023-07-31T08:14:46;2.40;;;1.73;;
6997;SDS011;3539;47.982;12.238;2023-07-31T08:17:12;3.40;;;1.70;;
6997;SDS011;3539;47.982;12.238;2023-07-31T08:19:41;3.20;;;1.90;;
6997;SDS011;3539;47.982;12.238;2023-07-31T08:22:09;2.30;;;1.63;;
6997;SDS011;3539;47.982;12.238;2023-07-31T08:24:36;2.93;;;1.70;;
6997;SDS011;3539;47.982;12.238;2023-07-31T08:27:02;3.07;;;1.67;;
6997;SDS011;3539;47.982;12.238;2023-07-31T08:29:30;2.70;;;1.50;;
6997;SDS011;3539;47.982;12.238;2023-07-31T08:31:56;2.87;;;1.60;;
6997;SDS011;3539;47.982;12.238;2023-07-31T08:34:23;2.00;;;1.33;;
6997;SDS011;3539;47.982;12.238;2023-07-31T08:36:51;2.47;;;1.60;;
6997;SDS011;3539;47.982;12.238;2023-07-31T08:39:18;2.27;;;1.30;;
6997;SDS011;3539;47.982;12.238;2023-07-31T08:41:45;2.33;;;1.67;;
6997;SDS011;3539;47.982;12.238;2023-07-31T08:44:12;3.80;;;1.67;;
6997;SDS011;3539;47.982;12.238;2023-07-31T08:46:40;2.77;;;1.50;;
6997;SDS011;3539;47.982;12.238;2023-07-31T08:49:07;1.80;;;1.50;;
6997;SDS011;3539;47.982;12.238;2023-07-31T08:51:34;3.73;;;1.53;;
6997;SDS011;3539;47.982;12.238;2023-07-31T08:54:03;3.90;;;1.57;;
6997;SDS011;3539;47.982;12.238;2023-07-31T08:56:30;1.73;;;1.30;;
6997;SDS011;3539;47.982;12.238;2023-07-31T08:59:02;3.27;;;2.00;;
6997;SDS011;3539;47.982;12.238;2023-07-31T09:01:31;3.73;;;1.63;;
6997;SDS011;3539;47.982;12.238;2023-07-31T09:04:02;3.00;;;1.73;;
6997;SDS011;3539;47.982;12.238;2023-07-31T09:06:30;3.73;;;1.90;;
6997;SDS011;3539;47.982;12.238;2023-07-31T09:08:58;3.07;;;1.40;;
6997;SDS011;3539;47.982;12.238;2023-07-31T09:11:26;2.60;;;1.70;;
6997;SDS011;3539;47.982;12.238;2023-07-31T09:13:54;2.53;;;1.60;;
6997;SDS011;3539;47.982;12.238;2023-07-31T09:16:26;1.97;;;1.53;;
6997;SDS011;3539;47.982;12.238;2023-07-31T09:18:55;1.90;;;1.40;;
6997;SDS011;3539;47.982;12.238;2023-07-31T09:21:23;2.60;;;1.73;;
6997;SDS011;3539;47.982;12.238;2023-07-31T09:26:52;2.53;;;1.40;;
6997;SDS011;3539;47.982;12.238;2023-07-31T09:29:20;2.30;;;1.57;;
6997;SDS011;3539;47.982;12.238;2023-07-31T09:31:47;2.93;;;1.50;;
6997;SDS011;3539;47.982;12.238;2023-07-31T09:34:13;2.40;;;1.50;;
6997;SDS011;3539;47.982;12.238;2023-07-31T09:36:41;1.53;;;1.40;;
6997;SDS011;3539;47.982;12.238;2023-07-31T09:39:09;2.37;;;1.60;;
6997;SDS011;3539;47.982;12.238;2023-07-31T09:41:36;2.47;;;1.50;;
6997;SDS011;3539;47.982;12.238;2023-07-31T09:44:06;3.20;;;1.63;;
6997;SDS011;3539;47.982;12.238;2023-07-31T09:46:34;2.07;;;1.40;;
6997;SDS011;3539;47.982;12.238;2023-07-31T09:49:08;2.20;;;1.53;;
6997;SDS011;3539;47.982;12.238;2023-07-31T09:51:35;1.73;;;1.50;;
6997;SDS011;3539;47.982;12.238;2023-07-31T09:54:08;2.90;;;1.50;;
6997;SDS011;3539;47.982;12.238;2023-07-31T09:56:37;2.40;;;1.60;;
6997;SDS011;3539;47.982;12.238;2023-07-31T09:59:09;2.13;;;1.60;;
6997;SDS011;3539;47.982;12.238;2023-07-31T10:01:37;2.07;;;1.60;;
6997;SDS011;3539;47.982;12.238;2023-07-31T10:04:04;1.67;;;1.57;;
6997;SDS011;3539;47.982;12.238;2023-07-31T10:06:32;1.50;;;1.40;;
6997;SDS011;3539;47.982;12.238;2023-07-31T10:08:59;3.27;;;1.50;;
6997;SDS011;3539;47.982;12.238;2023-07-31T10:11:27;2.27;;;1.70;;
6997;SDS011;3539;47.982;12.238;2023-07-31T10:13:54;5.23;;;1.70;;
6997;SDS011;3539;47.982;12.238;2023-07-31T10:16:22;1.40;;;1.30;;
6997;SDS011;3539;47.982;12.238;2023-07-31T10:18:49;2.13;;;1.47;;
6997;SDS011;3539;47.982;12.238;2023-07-31T10:21:17;1.90;;;1.47;;
6997;SDS011;3539;47.982;12.238;2023-07-31T10:23:44;2.43;;;1.50;;
6997;SDS011;3539;47.982;12.238;2023-07-31T10:26:11;2.60;;;1.60;;
6997;SDS011;3539;47.982;12.238;2023-07-31T10:28:39;3.43;;;1.80;;
6997;SDS011;3539;47.982;12.238;2023-07-31T10:31:06;2.23;;;1.50;;
6997;SDS011;3539;47.982;12.238;2023-07-31T10:33:35;2.80;;;1.60;;
6997;SDS011;3539;47.982;12.238;2023-07-31T10:36:12;3.03;;;1.67;;
6997;SDS011;3539;47.982;12.238;2023-07-31T10:38:39;2.47;;;1.50;;
6997;SDS011;3539;47.982;12.238;2023-07-31T10:41:09;4.13;;;1.70;;
6997;SDS011;3539;47.982;12.238;2023-07-31T10:43:36;2.10;;;1.60;;
6997;SDS011;3539;47.982;12.238;2023-07-31T10:46:06;2.93;;;1.60;;
6997;SDS011;3539;47.982;12.238;2023-07-31T10:48:35;3.80;;;1.63;;
6997;SDS011;3539;47.982;12.238;2023-07-31T10:51:06;3.43;;;1.70;;
6997;SDS011;3539;47.982;12.238;2023-07-31T10:53:34;2.60;;;1.50;;
6997;SDS011;3539;47.982;12.238;2023-07-31T10:56:01;2.53;;;1.57;;
6997;SDS011;3539;47.982;12.238;2023-07-31T10:58:29;2.70;;;1.73;;
6997;SDS011;3539;47.982;12.238;2023-07-31T11:00:58;2.27;;;1.73;;
6997;SDS011;3539;47.982;12.238;2023-07-31T11:03:26;2.17;;;1.50;;
6997;SDS011;3539;47.982;12.238;2023-07-31T11:05:59;3.40;;;1.63;;
6997;SDS011;3539;47.982;12.238;2023-07-31T11:08:28;2.67;;;1.50;;
6997;SDS011;3539;47.982;12.238;2023-07-31T11:11:06;2.63;;;1.43;;
6997;SDS011;3539;47.982;12.238;2023-07-31T11:13:34;1.73;;;1.40;;
6997;SDS011;3539;47.982;12.238;2023-07-31T11:16:06;2.25;;;1.58;;
6997;SDS011;3539;47.982;12.238;2023-07-31T11:18:33;3.87;;;1.50;;
6997;SDS011;3539;47.982;12.238;2023-07-31T11:21:01;2.23;;;1.50;;
6997;SDS011;3539;47.982;12.238;2023-07-31T11:23:28;2.90;;;1.50;;
6997;SDS011;3539;47.982;12.238;2023-07-31T11:25:58;1.60;;;1.37;;
6997;SDS011;3539;47.982;12.238;2023-07-31T11:28:25;1.77;;;1.67;;
6997;SDS011;3539;47.982;12.238;2023-07-31T11:30:52;2.53;;;1.80;;
6997;SDS011;3539;47.982;12.238;2023-07-31T11:33:22;2.00;;;1.50;;
6997;SDS011;3539;47.982;12.238;2023-07-31T11:35:49;2.22;;;1.30;;
6997;SDS011;3539;47.982;12.238;2023-07-31T11:38:22;1.67;;;1.35;;
6997;SDS011;3539;47.982;12.238;2023-07-31T11:40:49;2.42;;;1.90;;
6997;SDS011;3539;47.982;12.238;2023-07-31T11:43:17;2.40;;;1.50;;
6997;SDS011;3539;47.982;12.238;2023-07-31T11:45:45;2.05;;;1.55;;
6997;SDS011;3539;47.982;12.238;2023-07-31T11:48:18;2.35;;;1.73;;
6997;SDS011;3539;47.982;12.238;2023-07-31T11:50:45;2.05;;;1.52;;
6997;SDS011;3539;47.982;12.238;2023-07-31T11:53:14;2.22;;;1.50;;
6997;SDS011;3539;47.982;12.238;2023-07-31T11:55:43;2.22;;;1.50;;
6997;SDS011;3539;47.982;12.238;2023-07-31T11:58:11;1.83;;;1.43;;
6997;SDS011;3539;47.982;12.238;2023-07-31T12:00:39;2.93;;;1.70;;
6997;SDS011;3539;47.982;12.238;2023-07-31T12:03:05;3.60;;;1.80;;
6997;SDS011;3539;47.982;12.238;2023-07-31T12:05:32;2.47;;;1.70;;
6997;SDS011;3539;47.982;12.238;2023-07-31T12:07:59;2.77;;;1.57;;
6997;SDS011;3539;47.982;12.238;2023-07-31T12:10:27;1.93;;;1.50;;
6997;SDS011;3539;47.982;12.238;2023-07-31T12:13:03;1.80;;;1.40;;
6997;SDS011;3539;47.982;12.238;2023-07-31T12:15:34;3.00;;;1.53;;
6997;SDS011;3539;47.982;12.238;2023-07-31T12:18:03;2.37;;;1.70;;
6997;SDS011;3539;47.982;12.238;2023-07-31T12:20:31;2.37;;;1.50;;
6997;SDS011;3539;47.982;12.238;2023-07-31T12:22:58;3.23;;;1.67;;
6997;SDS011;3539;47.982;12.238;2023-07-31T12:25:29;1.73;;;1.52;;
6997;SDS011;3539;47.982;12.238;2023-07-31T12:27:56;3.00;;;1.50;;
6997;SDS011;3539;47.982;12.238;2023-07-31T12:30:28;2.03;;;1.60;;
6997;SDS011;3539;47.982;12.238;2023-07-31T12:32:55;1.90;;;1.70;;
6997;SDS011;3539;47.982;12.238;2023-07-31T12:35:22;2.20;;;1.33;;
6997;SDS011;3539;47.982;12.238;2023-07-31T12:37:49;1.90;;;1.40;;
6997;SDS011;3539;47.982;12.238;2023-07-31T12:40:16;2.63;;;1.50;;
6997;SDS011;3539;47.982;12.238;2023-07-31T12:42:43;2.60;;;1.60;;
6997;SDS011;3539;47.982;12.238;2023-07-31T12:45:09;2.33;;;1.60;;
6997;SDS011;3539;47.982;12.238;2023-07-31T12:47:37;1.65;;;1.55;;
6997;SDS011;3539;47.982;12.238;2023-07-31T12:50:05;2.65;;;1.33;;
6997;SDS011;3539;47.982;12.238;2023-07-31T12:52:32;2.42;;;1.50;;
6997;SDS011;3539;47.982;12.238;2023-07-31T12:54:59;2.30;;;1.42;;
6997;SDS011;3539;47.982;12.238;2023-07-31T12:57:26;2.55;;;1.80;;
6997;SDS011;3539;47.982;12.238;2023-07-31T12:59:53;1.92;;;1.60;;
6997;SDS011;3539;47.982;12.238;2023-07-31T13:02:20;3.13;;;1.50;;
6997;SDS011;3539;47.982;12.238;2023-07-31T13:04:48;1.65;;;1.55;;
6997;SDS011;3539;47.982;12.238;2023-07-31T13:07:15;2.25;;;1.58;;
6997;SDS011;3539;47.982;12.238;2023-07-31T13:09:42;2.35;;;1.58;;
6997;SDS011;3539;47.982;12.238;2023-07-31T13:12:09;4.32;;;1.60;;
6997;SDS011;3539;47.982;12.238;2023-07-31T13:14:36;2.78;;;1.50;;
6997;SDS011;3539;47.982;12.238;2023-07-31T13:17:03;2.88;;;1.60;;
6997;SDS011;3539;47.982;12.238;2023-07-31T13:19:30;5.00;;;1.75;;
6997;SDS011;3539;47.982;12.238;2023-07-31T13:21:58;2.22;;;1.55;;
6997;SDS011;3539;47.982;12.238;2023-07-31T13:24:25;2.17;;;1.40;;
6997;SDS011;3539;47.982;12.238;2023-07-31T13:26:51;2.17;;;1.30;;
6997;SDS011;3539;47.982;12.238;2023-07-31T13:29:18;2.33;;;1.52;;
6997;SDS011;3539;47.982;12.238;2023-07-31T13:31:46;1.80;;;1.52;;
6997;SDS011;3539;47.982;12.238;2023-07-31T13:34:13;2.15;;;1.60;;
6997;SDS011;3539;47.982;12.238;2023-07-31T13:36:40;2.47;;;1.67;;
6997;SDS011;3539;47.982;12.238;2023-07-31T13:39:08;1.80;;;1.48;;
6997;SDS011;3539;47.982;12.238;2023-07-31T13:41:35;2.28;;;1.55;;
6997;SDS011;3539;47.982;12.238;2023-07-31T13:44:02;1.55;;;1.45;;
6997;SDS011;3539;47.982;12.238;2023-07-31T13:46:29;2.08;;;1.70;;
6997;SDS011;3539;47.982;12.238;2023-07-31T13:48:57;4.13;;;1.83;;
6997;SDS011;3539;47.982;12.238;2023-07-31T13:51:24;2.85;;;1.75;;
6997;SDS011;3539;47.982;12.238;2023-07-31T13:53:52;1.77;;;1.33;;
6997;SDS011;3539;47.982;12.238;2023-07-31T13:56:20;2.43;;;1.87;;
6997;SDS011;3539;47.982;12.238;2023-07-31T13:58:47;1.83;;;1.60;;
6997;SDS011;3539;47.982;12.238;2023-07-31T14:01:14;2.60;;;1.80;;
6997;SDS011;3539;47.982;12.238;2023-07-31T14:03:41;1.93;;;1.57;;
6997;SDS011;3539;47.982;12.238;2023-07-31T14:06:07;1.90;;;1.50;;
6997;SDS011;3539;47.982;12.238;2023-07-31T14:08:34;3.60;;;1.70;;
6997;SDS011;3539;47.982;12.238;2023-07-31T14:11:01;3.17;;;1.80;;
6997;SDS011;3539;47.982;12.238;2023-07-31T14:13:29;2.23;;;1.60;;
6997;SDS011;3539;47.982;12.238;2023-07-31T14:15:56;2.37;;;1.73;;
6997;SDS011;3539;47.982;12.238;2023-07-31T14:18:24;2.37;;;1.40;;
6997;SDS011;3539;47.982;12.238;2023-07-31T14:20:51;3.93;;;1.70;;
6997;SDS011;3539;47.982;12.238;2023-07-31T14:23:18;1.60;;;1.50;;
6997;SDS011;3539;47.982;12.238;2023-07-31T14:25:46;2.77;;;1.70;;
6997;SDS011;3539;47.982;12.238;2023-07-31T14:28:13;2.27;;;1.53;;
6997;SDS011;3539;47.982;12.238;2023-07-31T14:30:48;2.50;;;1.70;;
6997;SDS011;3539;47.982;12.238;2023-07-31T14:33:15;1.93;;;1.50;;
6997;SDS011;3539;47.982;12.238;2023-07-31T14:35:42;1.70;;;1.50;;
6997;SDS011;3539;47.982;12.238;2023-07-31T14:38:09;3.60;;;1.73;;
6997;SDS011;3539;47.982;12.238;2023-07-31T14:40:36;2.13;;;1.70;;
6997;SDS011;3539;47.982;12.238;2023-07-31T14:43:03;2.30;;;1.50;;
6997;SDS011;3539;47.982;12.238;2023-07-31T14:45:30;1.93;;;1.40;;
6997;SDS011;3539;47.982;12.238;2023-07-31T14:47:58;2.30;;;1.70;;
6997;SDS011;3539;47.982;12.238;2023-07-31T14:50:25;3.43;;;1.60;;
6997;SDS011;3539;47.982;12.238;2023-07-31T14:52:52;2.57;;;1.60;;
6997;SDS011;3539;47.982;12.238;2023-07-31T14:55:19;2.30;;;1.70;;
6997;SDS011;3539;47.982;12.238;2023-07-31T14:57:45;3.53;;;1.80;;
6997;SDS011;3539;47.982;12.238;2023-07-31T15:00:12;1.97;;;1.50;;
6997;SDS011;3539;47.982;12.238;2023-07-31T15:02:40;1.80;;;1.50;;
6997;SDS011;3539;47.982;12.238;2023-07-31T15:05:09;1.60;;;1.43;;